createdAt,value
2022-11-18T00:01:43.580Z,15.80
2022-11-18T00:04:14.781Z,15.50
2022-11-18T00:06:43.682Z,18.10
2022-11-18T00:09:13.282Z,13.80
2022-11-18T00:12:01.836Z,15.10
2022-11-18T00:14:31.024Z,12.60
2022-11-18T00:17:02.928Z,12.90
2022-11-18T00:19:39.778Z,14.30
2022-11-18T00:22:13.308Z,12.90
2022-11-18T00:24:42.505Z,13.90
2022-11-18T00:27:12.464Z,16.90
2022-11-18T00:29:42.202Z,15.50
2022-11-18T00:32:11.385Z,16.10
2022-11-18T00:34:43.236Z,11.50
2022-11-18T00:37:14.068Z,13.50
2022-11-18T00:39:43.595Z,15.00
2022-11-18T00:42:32.321Z,16.60
2022-11-18T00:45:02.106Z,12.30
2022-11-18T00:47:31.590Z,16.60
2022-11-18T00:50:01.848Z,15.40
2022-11-18T00:55:00.481Z,15.80
2022-11-18T01:00:00.839Z,12.60
2022-11-18T01:02:31.583Z,15.60
2022-11-18T01:07:30.793Z,13.70
2022-11-18T01:10:00.174Z,21.40
2022-11-18T01:12:53.967Z,20.40
2022-11-18T01:15:24.993Z,19.30
2022-11-18T01:17:55.013Z,20.10
2022-11-18T01:20:24.861Z,18.60
2022-11-18T01:22:54.523Z,14.70
2022-11-18T01:25:24.495Z,15.20
2022-11-18T01:27:54.427Z,18.00
2022-11-18T01:30:24.200Z,15.40
2022-11-18T01:32:54.598Z,12.90
2022-11-18T01:35:24.900Z,13.60
2022-11-18T01:40:24.563Z,15.00
2022-11-18T01:42:54.720Z,13.50
2022-11-18T01:45:40.620Z,12.60
2022-11-18T01:48:25.437Z,15.10
2022-11-18T01:51:04.255Z,17.80
2022-11-18T01:53:39.690Z,14.90
2022-11-18T01:56:16.460Z,15.60
2022-11-18T01:59:07.375Z,13.40
2022-11-18T02:01:37.992Z,16.40
2022-11-18T02:06:40.166Z,13.90
2022-11-18T02:09:09.712Z,17.90
2022-11-18T02:11:52.007Z,14.70
2022-11-18T02:14:26.831Z,15.30
2022-11-18T02:17:25.622Z,13.60
2022-11-18T02:20:08.208Z,20.20
2022-11-18T02:23:05.895Z,15.30
2022-11-18T02:25:56.136Z,16.00
2022-11-18T02:31:09.219Z,16.20
2022-11-18T02:34:15.159Z,15.80
2022-11-18T02:36:58.408Z,19.00
2022-11-18T02:39:47.113Z,16.50
2022-11-18T02:42:18.247Z,17.70
2022-11-18T02:44:54.885Z,17.90
2022-11-18T02:47:28.059Z,16.40
2022-11-18T02:50:07.512Z,16.80
2022-11-18T02:52:41.717Z,15.40
2022-11-18T02:55:16.318Z,18.10
2022-11-18T02:57:48.467Z,16.30
2022-11-18T03:00:17.923Z,14.30
2022-11-18T03:02:50.209Z,14.20
2022-11-18T03:05:43.145Z,14.90
2022-11-18T03:08:20.068Z,13.30
2022-11-18T03:11:15.876Z,12.40
2022-11-18T03:13:55.018Z,11.30
2022-11-18T03:16:33.168Z,14.50
2022-11-18T03:19:11.700Z,11.60
2022-11-18T03:21:52.367Z,10.80
2022-11-18T03:24:33.519Z,12.20
2022-11-18T03:27:30.471Z,12.60
2022-11-18T03:30:06.146Z,12.10
2022-11-18T03:32:40.646Z,11.90
2022-11-18T03:35:18.767Z,11.60
2022-11-18T03:37:51.100Z,14.70
2022-11-18T03:40:27.573Z,12.80
2022-11-18T03:43:15.833Z,13.60
2022-11-18T03:46:02.535Z,12.80
2022-11-18T03:48:39.445Z,12.00
2022-11-18T03:51:15.166Z,13.30
2022-11-18T03:53:57.994Z,13.60
2022-11-18T03:56:33.092Z,12.20
2022-11-18T03:59:11.955Z,14.40
2022-11-18T04:01:48.520Z,11.90
2022-11-18T04:04:18.329Z,12.40
2022-11-18T04:06:56.090Z,11.70
2022-11-18T04:09:31.370Z,12.10
2022-11-18T04:12:09.693Z,13.00
2022-11-18T04:14:45.484Z,13.40
2022-11-18T04:17:18.204Z,13.60
2022-11-18T04:19:48.293Z,13.80
2022-11-18T04:22:18.977Z,12.40
2022-11-18T04:24:50.769Z,12.80
2022-11-18T04:27:20.023Z,10.40
2022-11-18T04:29:49.439Z,14.90
2022-11-18T04:32:18.625Z,14.00
2022-11-18T04:34:47.758Z,13.20
2022-11-18T04:37:17.344Z,17.20
2022-11-18T04:39:46.101Z,16.40
2022-11-18T04:42:16.276Z,14.90
2022-11-18T04:44:46.246Z,12.20
2022-11-18T04:47:15.785Z,13.30
2022-11-18T04:49:45.249Z,13.40
2022-11-18T04:52:15.057Z,14.30
2022-11-18T04:54:44.681Z,14.60
2022-11-18T04:57:13.978Z,19.90
2022-11-18T04:59:43.297Z,19.50
2022-11-18T05:02:13.546Z,17.60
2022-11-18T05:04:42.887Z,18.40
2022-11-18T05:07:15.665Z,17.70
2022-11-18T05:09:45.281Z,18.80
2022-11-18T05:12:34.356Z,20.80
2022-11-18T05:15:03.633Z,17.50
2022-11-18T05:17:35.499Z,15.40
2022-11-18T05:20:04.968Z,15.30
2022-11-18T05:22:34.313Z,11.60
2022-11-18T05:25:05.197Z,15.60
2022-11-18T05:27:34.961Z,17.20
2022-11-18T05:30:04.745Z,16.60
2022-11-18T05:32:33.553Z,16.90
2022-11-18T05:35:02.850Z,19.40
2022-11-18T05:37:33.170Z,15.80
2022-11-18T05:40:02.793Z,14.20
2022-11-18T05:42:50.518Z,14.40
2022-11-18T05:45:20.928Z,13.20
2022-11-18T05:48:03.610Z,12.60
2022-11-18T05:50:34.650Z,13.10
2022-11-18T05:53:04.878Z,14.10
2022-11-18T05:55:45.377Z,12.00
2022-11-18T05:58:14.480Z,13.60
2022-11-18T06:00:45.425Z,11.30
2022-11-18T06:03:23.878Z,12.60
2022-11-18T06:05:58.750Z,17.60
2022-11-18T06:08:32.069Z,17.60
2022-11-18T06:11:02.228Z,18.20
2022-11-18T06:13:39.557Z,24.30
2022-11-18T06:16:08.351Z,22.80
2022-11-18T06:18:37.135Z,19.60
2022-11-18T06:21:06.641Z,18.20
2022-11-18T06:23:38.054Z,24.90
2022-11-18T06:26:09.495Z,26.50
2022-11-18T06:28:39.996Z,22.60
2022-11-18T06:31:09.075Z,19.80
2022-11-18T06:33:38.086Z,18.10
2022-11-18T06:36:07.453Z,16.20
2022-11-18T06:38:36.353Z,16.00
2022-11-18T06:41:05.765Z,12.70
2022-11-18T06:43:41.919Z,81.50
2022-11-18T06:46:35.075Z,77.60
2022-11-18T06:49:04.368Z,32.60
2022-11-18T06:51:33.628Z,21.70
2022-11-18T06:54:07.476Z,16.50
2022-11-18T06:56:39.444Z,15.80
2022-11-18T06:59:09.453Z,16.80
2022-11-18T07:01:40.113Z,18.10
2022-11-18T07:04:08.979Z,20.30
2022-11-18T07:06:37.970Z,14.50
2022-11-18T07:09:07.573Z,16.50
2022-11-18T07:11:38.614Z,15.60
2022-11-18T07:14:08.794Z,11.90
2022-11-18T07:16:38.036Z,11.70
2022-11-18T07:19:13.555Z,10.50
2022-11-18T07:21:43.710Z,11.60
2022-11-18T07:24:14.748Z,10.10
2022-11-18T07:26:46.519Z,9.80
2022-11-18T07:29:16.181Z,15.30
2022-11-18T07:31:45.211Z,14.80
2022-11-18T07:34:14.295Z,15.30
2022-11-18T07:36:44.164Z,16.70
2022-11-18T07:41:45.010Z,15.90
2022-11-18T07:44:21.261Z,17.20
2022-11-18T07:46:57.520Z,14.70
2022-11-18T07:49:30.894Z,17.20
2022-11-18T07:52:01.233Z,19.50
2022-11-18T07:54:31.120Z,22.50
2022-11-18T07:56:59.809Z,14.50
2022-11-18T07:59:38.819Z,11.00
2022-11-18T08:02:20.044Z,9.50
2022-11-18T08:04:59.898Z,9.50
2022-11-18T08:07:44.698Z,9.70
2022-11-18T08:10:13.635Z,9.30
2022-11-18T08:12:43.172Z,8.20
2022-11-18T08:15:12.197Z,7.50
2022-11-18T08:17:40.903Z,7.60
2022-11-18T08:20:10.610Z,6.50
2022-11-18T08:22:39.296Z,6.70
2022-11-18T08:25:08.832Z,7.10
2022-11-18T08:27:37.676Z,5.60
2022-11-18T08:30:07.190Z,5.90
2022-11-18T08:32:35.770Z,5.90
2022-11-18T08:35:10.693Z,5.90
2022-11-18T08:37:40.275Z,3.70
2022-11-18T08:40:13.730Z,4.50
2022-11-18T08:42:42.600Z,4.50
2022-11-18T08:45:12.213Z,4.30
2022-11-18T08:47:41.564Z,3.40
2022-11-18T08:50:12.021Z,3.80
2022-11-18T08:52:40.979Z,4.50
2022-11-18T08:55:10.552Z,5.10
2022-11-18T08:57:39.323Z,4.00
2022-11-18T09:00:09.049Z,3.80
2022-11-18T09:02:37.652Z,4.40
2022-11-18T09:05:06.946Z,3.50
2022-11-18T09:07:35.565Z,3.80
2022-11-18T09:10:06.920Z,3.30
2022-11-18T09:12:35.681Z,3.50
2022-11-18T09:15:13.952Z,3.50
2022-11-18T09:17:43.589Z,5.60
2022-11-18T09:20:19.133Z,3.60
2022-11-18T09:22:47.894Z,3.90
2022-11-18T09:25:18.188Z,3.90
2022-11-18T09:27:48.376Z,4.50
2022-11-18T09:30:18.821Z,3.60
2022-11-18T09:32:47.519Z,3.80
2022-11-18T09:35:16.232Z,3.50
2022-11-18T09:37:45.221Z,3.60
2022-11-18T09:40:18.494Z,3.20
2022-11-18T09:43:37.073Z,4.00
2022-11-18T09:46:34.517Z,4.20
2022-11-18T09:49:15.440Z,4.40
2022-11-18T09:51:50.435Z,5.90
2022-11-18T09:54:28.953Z,3.90
2022-11-18T09:56:58.399Z,5.10
2022-11-18T09:59:32.263Z,4.80
2022-11-18T10:02:15.111Z,4.20
2022-11-18T10:04:43.766Z,5.80
2022-11-18T10:07:33.526Z,5.70
2022-11-18T10:10:08.371Z,5.10
2022-11-18T10:12:47.811Z,6.00
2022-11-18T10:15:39.748Z,5.40
2022-11-18T10:18:38.015Z,4.20
2022-11-18T10:21:19.828Z,3.80
2022-11-18T10:23:57.523Z,5.20
2022-11-18T10:26:36.689Z,5.30
2022-11-18T10:29:11.173Z,3.80
2022-11-18T10:32:05.969Z,5.00
2022-11-18T10:34:47.644Z,5.60
2022-11-18T10:37:45.777Z,4.60
2022-11-18T10:40:29.032Z,4.60
2022-11-18T10:42:58.083Z,4.60
2022-11-18T10:45:31.623Z,6.30
2022-11-18T10:48:11.020Z,5.00
2022-11-18T10:50:42.139Z,6.90
2022-11-18T10:53:37.082Z,4.20
2022-11-18T10:56:14.150Z,6.40
2022-11-18T10:58:49.617Z,5.20
2022-11-18T11:01:24.779Z,4.00
2022-11-18T11:04:00.745Z,4.80
2022-11-18T11:06:32.504Z,3.90
2022-11-18T11:09:11.260Z,5.30
2022-11-18T11:11:46.056Z,4.60
2022-11-18T11:14:29.180Z,5.40
2022-11-18T11:17:13.132Z,5.60
2022-11-18T11:19:51.113Z,5.00
2022-11-18T11:22:19.813Z,5.50
2022-11-18T11:24:48.803Z,4.20
2022-11-18T11:30:43.529Z,5.30
2022-11-18T11:33:28.384Z,5.50
2022-11-18T11:36:32.213Z,6.50
2022-11-18T11:39:22.409Z,5.00
2022-11-18T11:42:21.719Z,5.60
2022-11-18T11:44:59.355Z,5.40
2022-11-18T11:47:50.195Z,4.70
2022-11-18T11:51:05.076Z,5.10
2022-11-18T11:54:15.527Z,5.70
2022-11-18T11:56:53.834Z,4.70
2022-11-18T11:59:28.365Z,5.30
2022-11-18T12:02:15.371Z,5.30
2022-11-18T12:05:00.849Z,8.00
2022-11-18T12:07:46.491Z,4.90
2022-11-18T12:10:38.222Z,4.60
2022-11-18T12:13:14.774Z,4.60
2022-11-18T12:16:06.905Z,5.00
2022-11-18T12:18:54.179Z,4.40
2022-11-18T12:21:47.890Z,4.90
2022-11-18T12:24:41.143Z,4.50
2022-11-18T12:27:30.604Z,5.30
2022-11-18T12:30:05.668Z,5.60
2022-11-18T12:32:42.852Z,5.50
2022-11-18T12:35:12.018Z,5.10
2022-11-18T12:37:51.441Z,4.20
2022-11-18T12:40:40.931Z,4.50
2022-11-18T12:43:49.640Z,4.40
2022-11-18T12:46:27.032Z,5.70
2022-11-18T12:48:56.018Z,5.10
2022-11-18T12:51:27.579Z,7.40
2022-11-18T12:53:56.283Z,5.40
2022-11-18T12:56:28.259Z,5.80
2022-11-18T12:59:00.234Z,5.60
2022-11-18T13:01:32.260Z,5.60
2022-11-18T13:04:16.398Z,6.00
2022-11-18T13:06:45.915Z,5.00
2022-11-18T13:09:23.037Z,5.60
2022-11-18T13:11:57.146Z,5.50
2022-11-18T13:14:58.248Z,5.20
2022-11-18T13:17:49.150Z,5.80
2022-11-18T13:20:27.703Z,7.10
2022-11-18T13:23:17.253Z,6.90
2022-11-18T13:25:47.358Z,5.80
2022-11-18T13:28:37.726Z,5.10
2022-11-18T13:31:38.517Z,6.80
2022-11-18T13:34:22.281Z,5.50
2022-11-18T13:36:53.917Z,7.70
2022-11-18T13:39:35.291Z,6.10
2022-11-18T13:42:17.272Z,6.80
2022-11-18T13:44:59.757Z,4.90
2022-11-18T13:47:43.641Z,6.10
2022-11-18T13:50:15.377Z,8.30
2022-11-18T13:52:46.459Z,9.80
2022-11-18T13:55:24.843Z,8.10
2022-11-18T13:58:03.257Z,8.40
2022-11-18T14:00:35.933Z,7.20
2022-11-18T14:03:27.763Z,6.10
2022-11-18T14:05:58.088Z,7.30
2022-11-18T14:08:31.428Z,6.30
2022-11-18T14:11:08.792Z,7.80
2022-11-18T14:13:56.389Z,9.10
2022-11-18T14:16:35.818Z,6.80
2022-11-18T14:19:05.444Z,6.40
2022-11-18T14:21:36.741Z,5.80
2022-11-18T14:24:06.008Z,6.40
2022-11-18T14:26:37.692Z,5.40
2022-11-18T14:29:23.247Z,6.90
2022-11-18T14:32:14.027Z,6.00
2022-11-18T14:34:43.062Z,9.00
2022-11-18T14:37:13.622Z,11.00
2022-11-18T14:39:42.151Z,8.20
2022-11-18T14:42:13.317Z,9.10
2022-11-18T14:44:41.818Z,7.10
2022-11-18T14:47:27.592Z,8.60
2022-11-18T14:49:56.375Z,7.80
2022-11-18T14:52:24.994Z,9.20
2022-11-18T14:54:53.564Z,6.10
2022-11-18T14:57:21.949Z,8.60
2022-11-18T14:59:50.351Z,9.60
2022-11-18T15:02:18.912Z,8.30
2022-11-18T15:04:48.644Z,9.20
2022-11-18T15:07:23.399Z,8.40
2022-11-18T15:09:52.565Z,9.40
2022-11-18T15:12:21.145Z,12.00
2022-11-18T15:14:49.700Z,10.70
2022-11-18T15:17:20.497Z,16.40
2022-11-18T15:19:49.288Z,13.70
2022-11-18T15:22:17.741Z,21.30
2022-11-18T15:24:46.251Z,25.70
2022-11-18T15:27:14.688Z,20.90
2022-11-18T15:29:43.299Z,22.30
2022-11-18T15:32:11.974Z,23.80
2022-11-18T15:34:40.413Z,19.60
2022-11-18T15:37:12.666Z,19.70
2022-11-18T15:39:41.153Z,20.10
2022-11-18T15:42:09.753Z,20.70
2022-11-18T15:44:38.194Z,15.70
2022-11-18T15:47:06.578Z,14.00
2022-11-18T15:49:35.150Z,13.30
2022-11-18T15:52:03.954Z,13.10
2022-11-18T15:54:32.366Z,15.00
2022-11-18T15:57:00.750Z,12.90
2022-11-18T15:59:29.172Z,14.00
2022-11-18T16:01:57.607Z,14.20
2022-11-18T16:04:26.478Z,17.70
2022-11-18T16:06:55.158Z,16.40
2022-11-18T16:09:23.904Z,14.30
2022-11-18T16:12:11.905Z,20.40
2022-11-18T16:14:40.235Z,18.00
2022-11-18T16:17:08.737Z,16.70
2022-11-18T16:19:37.670Z,12.70
2022-11-18T16:22:07.083Z,14.30
2022-11-18T16:24:35.659Z,11.00
2022-11-18T16:27:04.672Z,12.20
2022-11-18T16:29:33.536Z,10.50
2022-11-18T16:32:02.238Z,13.20
2022-11-18T16:34:30.707Z,12.60
2022-11-18T16:37:02.569Z,14.20
2022-11-18T16:39:30.982Z,14.80
2022-11-18T16:42:08.654Z,16.00
2022-11-18T16:44:38.083Z,16.20
2022-11-18T16:47:13.756Z,16.30
2022-11-18T16:49:44.280Z,38.80
2022-11-18T16:52:12.953Z,39.70
2022-11-18T16:54:45.396Z,45.10
2022-11-18T16:57:15.157Z,53.00
2022-11-18T16:59:43.625Z,48.90
2022-11-18T17:02:13.794Z,45.80
2022-11-18T17:04:43.038Z,41.30
2022-11-18T17:07:11.710Z,27.20
2022-11-18T17:09:40.228Z,21.60
2022-11-18T17:12:08.659Z,18.20
2022-11-18T17:14:38.567Z,15.40
2022-11-18T17:19:35.581Z,10.40
2022-11-18T17:22:04.101Z,9.30
2022-11-18T17:24:32.893Z,9.60
2022-11-18T17:27:01.364Z,12.80
2022-11-18T17:29:29.971Z,19.40
2022-11-18T17:31:58.471Z,19.20
2022-11-18T17:34:26.904Z,20.90
2022-11-18T17:36:55.326Z,29.80
2022-11-18T17:39:24.043Z,31.30
2022-11-18T17:42:11.017Z,31.50
2022-11-18T17:44:41.519Z,36.10
2022-11-18T17:47:10.221Z,42.20
2022-11-18T17:49:38.850Z,43.00
2022-11-18T17:52:07.654Z,41.00
2022-11-18T17:54:36.079Z,48.80
2022-11-18T17:57:04.585Z,45.50
2022-11-18T17:59:32.961Z,44.20
2022-11-18T18:02:01.617Z,57.00
2022-11-18T18:04:30.602Z,51.60
2022-11-18T18:06:59.367Z,56.20
2022-11-18T18:09:31.460Z,51.70
2022-11-18T18:12:20.977Z,58.70
2022-11-18T18:14:50.021Z,51.90
2022-11-18T18:17:18.678Z,50.60
2022-11-18T18:19:47.138Z,50.60
2022-11-18T18:22:15.490Z,51.70
2022-11-18T18:24:43.960Z,55.70
2022-11-18T18:27:12.450Z,55.10
2022-11-18T18:29:40.828Z,54.40
2022-11-18T18:32:09.238Z,49.30
2022-11-18T18:34:37.666Z,53.20
2022-11-18T18:37:06.501Z,49.40
2022-11-18T18:39:34.915Z,45.80
2022-11-18T18:42:04.005Z,33.60
2022-11-18T18:44:51.029Z,27.70
2022-11-18T18:47:19.543Z,22.80
2022-11-18T18:49:47.978Z,23.40
2022-11-18T18:52:16.415Z,23.30
2022-11-18T18:54:44.881Z,25.20
2022-11-18T18:57:13.323Z,23.80
2022-11-18T18:59:41.883Z,24.30
2022-11-18T19:02:13.302Z,21.40
2022-11-18T19:04:42.918Z,28.50
2022-11-18T19:07:11.404Z,33.00
2022-11-18T19:09:39.941Z,33.30
2022-11-18T19:12:28.830Z,24.40
2022-11-18T19:14:57.255Z,31.00
2022-11-18T19:17:28.197Z,31.10
2022-11-18T19:20:17.796Z,35.50
2022-11-18T19:22:46.180Z,41.60
2022-11-18T19:25:14.555Z,135.00
2022-11-18T19:27:42.996Z,321.50
2022-11-18T19:30:12.752Z,139.70
2022-11-18T19:32:41.998Z,86.30
2022-11-18T19:35:10.625Z,51.20
2022-11-18T19:37:39.113Z,31.70
2022-11-18T19:40:10.531Z,23.30
2022-11-18T19:42:39.844Z,24.70
2022-11-18T19:45:11.963Z,32.50
2022-11-18T19:47:40.390Z,27.60
2022-11-18T19:50:09.426Z,26.10
2022-11-18T19:52:37.996Z,25.80
2022-11-18T19:55:08.192Z,28.40
2022-11-18T19:57:36.705Z,26.20
2022-11-18T20:00:05.750Z,25.50
2022-11-18T20:02:38.841Z,29.90
2022-11-18T20:05:26.114Z,35.50
2022-11-18T20:07:56.194Z,35.10
2022-11-18T20:10:26.256Z,30.00
2022-11-18T20:12:56.430Z,31.50
2022-11-18T20:17:53.048Z,27.60
2022-11-18T20:20:21.383Z,29.20
2022-11-18T20:22:50.005Z,29.10
2022-11-18T20:25:18.527Z,29.10
2022-11-18T20:27:47.187Z,27.40
2022-11-18T20:30:15.652Z,27.70
2022-11-18T20:32:46.547Z,22.20
2022-11-18T20:35:15.627Z,23.40
2022-11-18T20:37:44.289Z,23.00
2022-11-18T20:40:12.900Z,27.40
2022-11-18T20:42:59.864Z,25.30
2022-11-18T20:45:28.373Z,21.30
2022-11-18T20:47:56.811Z,22.30
2022-11-18T20:50:25.197Z,20.50
2022-11-18T20:52:53.712Z,20.40
2022-11-18T20:55:22.229Z,19.80
2022-11-18T20:57:50.718Z,19.70
2022-11-18T21:00:19.242Z,18.90
2022-11-18T21:02:47.732Z,21.10
2022-11-18T21:05:16.290Z,22.60
2022-11-18T21:07:44.873Z,24.00
2022-11-18T21:10:13.360Z,21.80
2022-11-18T21:13:01.743Z,29.80
2022-11-18T21:15:30.538Z,26.70
2022-11-18T21:17:59.095Z,31.30
2022-11-18T21:20:46.211Z,34.30
2022-11-18T21:23:14.663Z,52.20
2022-11-18T21:25:43.544Z,37.20
2022-11-18T21:28:12.020Z,30.90
2022-11-18T21:30:40.478Z,34.90
2022-11-18T21:33:08.969Z,36.80
2022-11-18T21:35:37.448Z,33.70
2022-11-18T21:38:06.444Z,31.10
2022-11-18T21:40:34.958Z,30.10
2022-11-18T21:43:03.401Z,31.10
2022-11-18T21:45:32.062Z,32.60
2022-11-18T21:48:00.549Z,28.40
2022-11-18T21:50:29.036Z,31.50
2022-11-18T21:52:57.652Z,26.90
2022-11-18T21:55:26.178Z,28.30
2022-11-18T21:57:55.987Z,29.20
2022-11-18T22:00:27.474Z,29.10
2022-11-18T22:02:56.093Z,27.30
2022-11-18T22:05:24.433Z,24.30
2022-11-18T22:07:52.945Z,27.00
2022-11-18T22:10:21.413Z,24.00
2022-11-18T22:12:51.715Z,27.20
2022-11-18T22:15:21.054Z,24.50
2022-11-18T22:17:51.431Z,25.70
2022-11-18T22:20:20.376Z,25.50
2022-11-18T22:22:48.887Z,22.80
2022-11-18T22:25:17.525Z,23.00
2022-11-18T22:27:45.945Z,20.70
2022-11-18T22:30:15.145Z,24.60
2022-11-18T22:32:44.106Z,19.80
2022-11-18T22:35:12.780Z,20.80
2022-11-18T22:37:41.382Z,20.30
2022-11-18T22:40:10.741Z,18.50
2022-11-18T22:42:48.171Z,25.10
2022-11-18T22:45:17.347Z,20.60
2022-11-18T22:47:46.149Z,19.80
2022-11-18T22:50:16.569Z,17.30
2022-11-18T22:52:45.116Z,20.50
2022-11-18T22:55:13.847Z,19.90
2022-11-18T22:57:44.467Z,17.00
2022-11-18T23:00:14.340Z,17.10
2022-11-18T23:02:42.955Z,12.00
2022-11-18T23:05:11.696Z,9.80
2022-11-18T23:07:40.363Z,11.10
2022-11-18T23:10:09.620Z,9.10
2022-11-18T23:12:56.906Z,8.20
2022-11-18T23:15:25.502Z,8.20
2022-11-18T23:17:54.247Z,8.30
2022-11-18T23:20:22.992Z,8.70
2022-11-18T23:22:51.732Z,7.90
2022-11-18T23:25:20.276Z,8.20
2022-11-18T23:27:53.962Z,7.90
2022-11-18T23:30:22.927Z,7.60
2022-11-18T23:32:54.282Z,8.00
2022-11-18T23:35:23.014Z,7.40
2022-11-18T23:37:53.078Z,8.50
2022-11-18T23:42:51.011Z,7.90
2022-11-18T23:45:19.761Z,6.60
2022-11-18T23:47:48.507Z,7.50
2022-11-18T23:50:17.225Z,6.50
2022-11-18T23:52:46.092Z,5.50
2022-11-18T23:55:14.932Z,5.20
2022-11-18T23:57:43.505Z,5.60
